createdAt,value
2023-02-27T00:01:41.444Z,6.25
2023-02-27T00:04:08.187Z,6.35
2023-02-27T00:06:34.771Z,9.10
2023-02-27T00:09:01.410Z,7.63
2023-02-27T00:11:28.446Z,11.57
2023-02-27T00:13:55.332Z,7.38
2023-02-27T00:16:22.118Z,7.25
2023-02-27T00:18:48.716Z,7.38
2023-02-27T00:21:15.337Z,10.63
2023-02-27T00:23:41.935Z,6.80
2023-02-27T00:26:08.531Z,5.90
2023-02-27T00:28:35.165Z,10.25
2023-02-27T00:31:01.962Z,6.88
2023-02-27T00:33:28.593Z,6.97
2023-02-27T00:35:58.115Z,6.35
2023-02-27T00:38:24.938Z,6.68
2023-02-27T00:40:51.541Z,5.45
2023-02-27T00:43:18.154Z,7.45
2023-02-27T00:45:44.725Z,8.10
2023-02-27T00:48:11.430Z,10.68
2023-02-27T00:50:38.292Z,8.00
2023-02-27T00:53:05.181Z,8.25
2023-02-27T00:55:31.964Z,7.40
2023-02-27T00:57:58.583Z,5.95
2023-02-27T01:00:25.392Z,5.43
2023-02-27T01:02:52.262Z,8.15
2023-02-27T01:05:19.214Z,7.40
2023-02-27T01:07:45.810Z,9.25
2023-02-27T01:10:12.926Z,6.68
2023-02-27T01:12:40.315Z,13.32
2023-02-27T01:15:08.314Z,6.35
2023-02-27T01:17:34.913Z,8.80
2023-02-27T01:20:01.542Z,5.80
2023-02-27T01:22:28.130Z,6.43
2023-02-27T01:24:54.837Z,7.00
2023-02-27T01:27:21.443Z,7.65
2023-02-27T01:29:48.005Z,3.92
2023-02-27T01:32:14.667Z,7.50
2023-02-27T01:34:41.417Z,7.50
2023-02-27T01:37:08.122Z,7.07
2023-02-27T01:39:34.780Z,9.80
2023-02-27T01:42:01.451Z,5.82
2023-02-27T01:44:30.468Z,4.75
2023-02-27T01:46:57.396Z,5.63
2023-02-27T01:49:29.488Z,9.35
2023-02-27T01:52:03.262Z,6.30
2023-02-27T01:54:32.435Z,7.25
2023-02-27T01:56:59.298Z,8.10
2023-02-27T01:59:25.930Z,9.10
2023-02-27T02:01:52.945Z,7.22
2023-02-27T02:04:27.054Z,11.98
2023-02-27T02:07:00.540Z,8.02
2023-02-27T02:09:28.932Z,7.93
2023-02-27T02:11:57.800Z,7.03
2023-02-27T02:14:24.412Z,12.02
2023-02-27T02:16:51.583Z,10.60
2023-02-27T02:19:53.157Z,9.05
2023-02-27T02:22:35.057Z,7.22
2023-02-27T02:25:24.536Z,9.65
2023-02-27T02:28:06.463Z,5.45
2023-02-27T02:30:34.132Z,7.78
2023-02-27T02:33:17.018Z,10.63
2023-02-27T02:36:20.902Z,9.45
2023-02-27T02:39:12.243Z,8.55
2023-02-27T02:41:55.275Z,7.70
2023-02-27T02:44:52.266Z,8.52
2023-02-27T02:47:19.892Z,7.90
2023-02-27T02:49:58.037Z,9.38
2023-02-27T02:52:51.966Z,8.93
2023-02-27T02:55:34.931Z,10.02
2023-02-27T02:58:12.656Z,7.40
2023-02-27T03:00:46.732Z,8.57
2023-02-27T03:03:21.611Z,9.35
2023-02-27T03:05:55.766Z,9.25
2023-02-27T03:08:28.809Z,10.65
2023-02-27T03:10:57.901Z,7.25
2023-02-27T03:13:29.391Z,10.90
2023-02-27T03:16:07.929Z,12.15
2023-02-27T03:18:41.326Z,8.45
2023-02-27T03:21:13.632Z,6.40
2023-02-27T03:23:45.639Z,7.85
2023-02-27T03:26:17.397Z,8.65
2023-02-27T03:28:56.068Z,10.05
2023-02-27T03:31:31.751Z,8.35
2023-02-27T03:34:05.676Z,9.13
2023-02-27T03:36:46.112Z,8.43
2023-02-27T03:39:37.804Z,8.88
2023-02-27T03:42:26.526Z,12.07
2023-02-27T03:44:53.142Z,8.30
2023-02-27T03:47:20.188Z,11.48
2023-02-27T03:49:47.057Z,11.38
2023-02-27T03:52:13.744Z,12.40
2023-02-27T03:55:00.976Z,7.63
2023-02-27T03:57:28.415Z,8.27
2023-02-27T03:59:55.414Z,11.80
2023-02-27T04:02:23.124Z,9.55
2023-02-27T04:04:49.858Z,8.80
2023-02-27T04:07:32.076Z,10.52
2023-02-27T04:10:13.862Z,10.65
2023-02-27T04:12:56.742Z,11.02
2023-02-27T04:15:42.758Z,13.32
2023-02-27T04:18:24.692Z,11.10
2023-02-27T04:20:58.871Z,14.75
2023-02-27T04:23:39.992Z,11.57
2023-02-27T04:26:22.083Z,11.00
2023-02-27T04:29:03.565Z,10.48
2023-02-27T04:31:30.474Z,8.60
2023-02-27T04:34:05.839Z,8.80
2023-02-27T04:36:52.109Z,10.52
2023-02-27T04:39:24.598Z,10.13
2023-02-27T04:41:57.584Z,7.65
2023-02-27T04:44:26.141Z,11.00
2023-02-27T04:46:56.103Z,11.07
2023-02-27T04:49:29.348Z,11.05
2023-02-27T04:52:10.457Z,12.63
2023-02-27T04:54:52.518Z,9.48
2023-02-27T04:57:27.521Z,10.95
2023-02-27T04:59:55.693Z,10.00
2023-02-27T05:02:28.180Z,7.00
2023-02-27T05:05:00.001Z,8.00
2023-02-27T05:07:39.398Z,7.57
2023-02-27T05:10:12.599Z,12.25
2023-02-27T05:12:47.580Z,14.85
2023-02-27T05:15:24.443Z,7.35
2023-02-27T05:18:08.479Z,10.00
2023-02-27T05:20:50.565Z,10.38
2023-02-27T05:23:29.162Z,9.73
2023-02-27T05:26:01.448Z,7.38
2023-02-27T05:28:34.953Z,7.95
2023-02-27T05:31:09.916Z,6.65
2023-02-27T05:33:43.419Z,9.38
2023-02-27T05:36:22.100Z,9.00
2023-02-27T05:38:53.204Z,8.48
2023-02-27T05:41:27.630Z,7.68
2023-02-27T05:44:01.356Z,8.63
2023-02-27T05:46:33.239Z,11.18
2023-02-27T05:49:05.617Z,10.02
2023-02-27T05:51:36.768Z,10.90
2023-02-27T05:54:10.111Z,11.63
2023-02-27T05:56:38.479Z,8.25
2023-02-27T05:59:15.243Z,9.93
2023-02-27T06:01:41.986Z,9.07
2023-02-27T06:04:08.680Z,8.00
2023-02-27T06:06:37.180Z,8.40
2023-02-27T06:09:03.908Z,9.00
2023-02-27T06:11:30.484Z,10.32
2023-02-27T06:13:57.032Z,12.77
2023-02-27T06:16:23.686Z,14.60
2023-02-27T06:18:50.332Z,17.15
2023-02-27T06:21:16.942Z,8.27
2023-02-27T06:23:43.537Z,26.90
2023-02-27T06:26:14.388Z,7.88
2023-02-27T06:28:42.309Z,11.80
2023-02-27T06:31:08.971Z,8.68
2023-02-27T06:33:35.627Z,9.02
2023-02-27T06:36:02.269Z,9.25
2023-02-27T06:38:28.834Z,9.43
2023-02-27T06:40:58.984Z,9.68
2023-02-27T06:43:25.782Z,8.90
2023-02-27T06:45:54.691Z,9.90
2023-02-27T06:48:21.344Z,7.32
2023-02-27T06:50:53.662Z,11.68
2023-02-27T06:53:20.643Z,12.32
2023-02-27T06:55:47.249Z,8.30
2023-02-27T06:58:14.283Z,9.95
2023-02-27T07:00:40.917Z,8.18
2023-02-27T07:03:07.546Z,10.30
2023-02-27T07:05:34.153Z,8.85
2023-02-27T07:08:01.051Z,7.07
2023-02-27T07:10:27.643Z,10.52
2023-02-27T07:12:55.175Z,8.07
2023-02-27T07:15:22.547Z,10.27
2023-02-27T07:17:49.151Z,8.88
2023-02-27T07:20:15.782Z,8.05
2023-02-27T07:22:42.697Z,13.13
2023-02-27T07:25:10.417Z,12.45
2023-02-27T07:27:37.035Z,11.65
2023-02-27T07:30:07.641Z,9.50
2023-02-27T07:32:34.234Z,7.68
2023-02-27T07:35:00.808Z,13.30
2023-02-27T07:37:28.229Z,11.23
2023-02-27T07:39:54.871Z,9.95
2023-02-27T07:42:21.702Z,9.00
2023-02-27T07:44:48.300Z,13.77
2023-02-27T07:47:14.914Z,8.95
2023-02-27T07:49:41.504Z,12.32
2023-02-27T07:52:08.343Z,10.75
2023-02-27T07:54:37.555Z,5.25
2023-02-27T07:57:05.480Z,9.65
2023-02-27T07:59:32.312Z,8.07
2023-02-27T08:01:58.876Z,14.18
2023-02-27T08:04:25.564Z,6.47
2023-02-27T08:06:52.160Z,7.70
2023-02-27T08:09:18.836Z,7.28
2023-02-27T08:11:47.257Z,7.78
2023-02-27T08:14:15.459Z,6.82
2023-02-27T08:16:42.077Z,5.28
2023-02-27T08:19:08.686Z,9.32
2023-02-27T08:21:35.270Z,7.95
2023-02-27T08:24:02.159Z,8.35
2023-02-27T08:26:29.096Z,6.32
2023-02-27T08:28:55.884Z,9.70
2023-02-27T08:31:22.565Z,5.78
2023-02-27T08:33:55.263Z,7.28
2023-02-27T08:36:24.605Z,5.32
2023-02-27T08:38:51.217Z,8.52
2023-02-27T08:41:17.851Z,8.70
2023-02-27T08:43:44.444Z,9.35
2023-02-27T08:46:11.356Z,10.10
2023-02-27T08:48:37.960Z,7.82
2023-02-27T08:51:04.614Z,8.68
2023-02-27T08:53:31.202Z,10.55
2023-02-27T08:55:57.770Z,6.93
2023-02-27T08:58:24.367Z,8.88
2023-02-27T09:00:50.978Z,7.28
2023-02-27T09:03:17.597Z,5.35
2023-02-27T09:05:44.186Z,10.10
2023-02-27T09:08:10.802Z,8.60
2023-02-27T09:10:37.474Z,5.10
2023-02-27T09:13:04.580Z,14.32
2023-02-27T09:15:32.574Z,8.45
2023-02-27T09:18:03.109Z,4.80
2023-02-27T09:20:31.727Z,4.25
2023-02-27T09:22:59.308Z,2.72
2023-02-27T09:25:26.767Z,10.20
2023-02-27T09:27:53.377Z,5.93
2023-02-27T09:30:20.411Z,7.97
2023-02-27T09:32:47.076Z,5.93
2023-02-27T09:35:15.833Z,7.07
2023-02-27T09:37:44.053Z,6.68
2023-02-27T09:40:22.780Z,5.03
2023-02-27T09:42:50.466Z,9.98
2023-02-27T09:45:23.797Z,4.85
2023-02-27T09:47:55.768Z,7.90
2023-02-27T09:50:38.535Z,5.72
2023-02-27T09:53:12.156Z,6.00
2023-02-27T09:55:41.612Z,5.30
2023-02-27T09:58:17.637Z,4.90
2023-02-27T10:00:49.044Z,6.55
2023-02-27T10:03:35.200Z,5.05
2023-02-27T10:06:32.368Z,8.25
2023-02-27T10:09:19.262Z,6.72
2023-02-27T10:14:36.066Z,6.03
2023-02-27T10:17:06.474Z,9.35
2023-02-27T10:19:37.697Z,10.65
2023-02-27T10:22:11.405Z,6.55
2023-02-27T10:24:44.851Z,5.07
2023-02-27T10:27:19.204Z,5.22
2023-02-27T10:29:46.616Z,8.02
2023-02-27T10:32:31.796Z,7.07
2023-02-27T10:35:17.687Z,6.32
2023-02-27T10:37:50.907Z,8.13
2023-02-27T10:40:20.498Z,6.32
2023-02-27T10:42:51.142Z,7.25
2023-02-27T10:45:17.890Z,6.47
2023-02-27T10:47:45.253Z,5.88
2023-02-27T10:50:28.756Z,6.97
2023-02-27T10:52:59.873Z,7.68
2023-02-27T10:55:38.674Z,7.93
2023-02-27T10:58:06.158Z,11.75
2023-02-27T11:00:41.066Z,6.10
2023-02-27T11:03:16.914Z,6.03
2023-02-27T11:05:52.500Z,7.80
2023-02-27T11:08:24.305Z,9.75
2023-02-27T11:10:57.771Z,6.03
2023-02-27T11:13:27.879Z,7.25
2023-02-27T11:16:12.989Z,5.60
2023-02-27T11:18:43.527Z,9.18
2023-02-27T11:21:10.078Z,9.13
2023-02-27T11:23:36.901Z,8.77
2023-02-27T11:26:22.441Z,5.47
2023-02-27T11:29:08.382Z,5.53
2023-02-27T11:31:39.540Z,4.38
2023-02-27T11:34:08.267Z,4.07
2023-02-27T11:36:41.399Z,5.13
2023-02-27T11:39:22.239Z,4.50
2023-02-27T11:41:49.109Z,5.18
2023-02-27T11:44:27.393Z,6.15
2023-02-27T11:47:13.731Z,8.38
2023-02-27T11:50:06.462Z,12.35
2023-02-27T11:52:38.825Z,6.60
2023-02-27T11:55:10.343Z,5.07
2023-02-27T11:57:41.481Z,5.78
2023-02-27T12:00:21.190Z,8.18
2023-02-27T12:03:18.389Z,9.00
2023-02-27T12:05:50.432Z,8.20
2023-02-27T12:08:42.710Z,7.35
2023-02-27T12:11:28.263Z,5.78
2023-02-27T12:14:18.055Z,6.53
2023-02-27T12:16:59.035Z,9.70
2023-02-27T12:19:33.505Z,7.22
2023-02-27T12:22:10.918Z,6.43
2023-02-27T12:24:45.846Z,10.00
2023-02-27T12:27:18.496Z,5.10
2023-02-27T12:29:53.626Z,4.68
2023-02-27T12:32:42.861Z,5.40
2023-02-27T12:35:23.406Z,10.48
2023-02-27T12:37:51.096Z,7.20
2023-02-27T12:40:19.452Z,4.80
2023-02-27T12:43:11.121Z,6.10
2023-02-27T12:46:01.946Z,8.90
2023-02-27T12:48:45.170Z,4.03
2023-02-27T12:51:31.568Z,5.63
2023-02-27T12:54:15.956Z,4.65
2023-02-27T12:57:02.337Z,4.15
2023-02-27T13:00:07.867Z,6.60
2023-02-27T13:02:48.779Z,5.85
2023-02-27T13:05:45.967Z,4.65
2023-02-27T13:08:32.842Z,6.20
2023-02-27T13:13:43.982Z,5.65
2023-02-27T13:16:26.282Z,5.28
2023-02-27T13:19:04.948Z,14.60
2023-02-27T13:21:38.332Z,6.43
2023-02-27T13:24:31.479Z,6.50
2023-02-27T13:27:16.003Z,8.55
2023-02-27T13:29:48.680Z,8.40
2023-02-27T13:32:16.401Z,4.70
2023-02-27T13:34:49.241Z,8.55
2023-02-27T13:37:16.108Z,7.82
2023-02-27T13:39:56.416Z,4.65
2023-02-27T13:42:55.540Z,6.05
2023-02-27T13:45:52.677Z,7.63
2023-02-27T13:48:34.463Z,4.15
2023-02-27T13:51:01.557Z,7.28
2023-02-27T13:53:28.788Z,5.85
2023-02-27T13:56:17.554Z,7.45
2023-02-27T13:58:45.077Z,10.52
2023-02-27T14:01:19.362Z,11.52
2023-02-27T14:03:54.497Z,7.85
2023-02-27T14:06:23.313Z,10.48
2023-02-27T14:08:57.570Z,12.68
2023-02-27T14:11:39.719Z,7.93
2023-02-27T14:14:09.121Z,6.25
2023-02-27T14:16:54.085Z,6.93
2023-02-27T14:19:22.707Z,5.65
2023-02-27T14:21:54.416Z,5.40
2023-02-27T14:24:27.301Z,6.55
2023-02-27T14:26:54.999Z,7.40
2023-02-27T14:29:25.794Z,10.60
2023-02-27T14:31:54.256Z,10.38
2023-02-27T14:34:22.168Z,6.75
2023-02-27T14:36:54.083Z,4.63
2023-02-27T14:39:32.075Z,6.28
2023-02-27T14:42:19.535Z,8.15
2023-02-27T14:44:51.613Z,5.93
2023-02-27T14:47:23.254Z,9.93
2023-02-27T14:49:49.913Z,7.45
2023-02-27T14:52:20.193Z,7.95
2023-02-27T14:54:48.482Z,8.80
2023-02-27T14:57:26.792Z,6.88
2023-02-27T14:59:54.874Z,7.28
2023-02-27T15:02:26.201Z,5.50
2023-02-27T15:05:13.639Z,6.13
2023-02-27T15:07:40.542Z,8.32
2023-02-27T15:10:10.609Z,10.25
2023-02-27T15:12:39.333Z,6.65
2023-02-27T15:15:09.059Z,7.13
2023-02-27T15:17:40.996Z,7.35
2023-02-27T15:20:24.956Z,6.43
2023-02-27T15:22:51.704Z,8.90
2023-02-27T15:25:37.484Z,5.70
2023-02-27T15:28:15.789Z,5.38
2023-02-27T15:30:42.550Z,3.55
2023-02-27T15:33:16.197Z,5.80
2023-02-27T15:35:45.291Z,4.28
2023-02-27T15:38:33.378Z,10.48
2023-02-27T15:41:01.837Z,6.05
2023-02-27T15:43:30.264Z,5.88
2023-02-27T15:45:58.362Z,4.25
2023-02-27T15:48:25.965Z,4.20
2023-02-27T15:50:57.080Z,3.78
2023-02-27T15:53:27.030Z,5.05
2023-02-27T15:56:00.852Z,5.95
2023-02-27T15:58:31.811Z,5.53
2023-02-27T16:01:01.730Z,5.38
2023-02-27T16:03:34.243Z,6.95
2023-02-27T16:06:01.314Z,6.18
2023-02-27T16:08:31.181Z,4.45
2023-02-27T16:10:58.222Z,4.00
2023-02-27T16:13:25.830Z,3.50
2023-02-27T16:16:23.061Z,9.52
2023-02-27T16:18:54.014Z,9.95
2023-02-27T16:21:23.407Z,7.43
2023-02-27T16:23:50.433Z,4.00
2023-02-27T16:26:37.054Z,5.07
2023-02-27T16:29:19.737Z,3.47
2023-02-27T16:31:49.392Z,3.22
2023-02-27T16:34:26.122Z,3.80
2023-02-27T16:36:58.691Z,5.07
2023-02-27T16:39:26.142Z,7.32
2023-02-27T16:41:55.295Z,5.15
2023-02-27T16:44:23.767Z,6.10
2023-02-27T16:46:51.758Z,4.53
2023-02-27T16:49:24.136Z,3.90
2023-02-27T16:51:51.655Z,4.20
2023-02-27T16:54:19.004Z,5.10
2023-02-27T16:56:47.186Z,5.78
2023-02-27T16:59:33.554Z,4.78
2023-02-27T17:02:02.752Z,4.20
2023-02-27T17:04:30.168Z,4.00
2023-02-27T17:06:59.298Z,6.70
2023-02-27T17:09:28.215Z,3.75
2023-02-27T17:11:55.980Z,4.45
2023-02-27T17:14:23.485Z,3.92
2023-02-27T17:16:50.342Z,4.60
2023-02-27T17:19:17.164Z,2.15
2023-02-27T17:21:43.776Z,5.18
2023-02-27T17:24:10.381Z,5.95
2023-02-27T17:26:37.019Z,4.53
2023-02-27T17:29:05.233Z,4.72
2023-02-27T17:31:32.004Z,4.45
2023-02-27T17:33:58.690Z,4.38
2023-02-27T17:36:26.236Z,7.10
2023-02-27T17:38:56.087Z,3.53
2023-02-27T17:41:22.909Z,2.67
2023-02-27T17:43:52.176Z,3.08
2023-02-27T17:46:18.854Z,6.13
2023-02-27T17:48:45.518Z,5.00
2023-02-27T17:51:14.451Z,5.78
2023-02-27T17:53:41.379Z,4.30
2023-02-27T17:56:09.217Z,8.93
2023-02-27T17:58:35.894Z,8.93
2023-02-27T18:01:06.258Z,8.43
2023-02-27T18:03:33.164Z,3.13
2023-02-27T18:06:00.252Z,5.82
2023-02-27T18:08:28.155Z,6.13
2023-02-27T18:10:55.479Z,4.50
2023-02-27T18:13:22.149Z,5.47
2023-02-27T18:15:50.035Z,6.75
2023-02-27T18:18:16.726Z,6.60
2023-02-27T18:20:43.374Z,3.40
2023-02-27T18:23:10.280Z,4.30
2023-02-27T18:25:37.379Z,5.28
2023-02-27T18:28:05.354Z,4.38
2023-02-27T18:30:36.849Z,11.07
2023-02-27T18:33:03.723Z,3.38
2023-02-27T18:35:30.382Z,3.10
2023-02-27T18:37:57.111Z,5.93
2023-02-27T18:40:25.042Z,4.38
2023-02-27T18:42:53.408Z,5.15
2023-02-27T18:45:20.290Z,7.20
2023-02-27T18:47:47.120Z,6.03
2023-02-27T18:50:13.927Z,5.45
2023-02-27T18:52:40.550Z,7.38
2023-02-27T18:55:07.653Z,4.53
2023-02-27T18:57:34.730Z,7.28
2023-02-27T19:00:01.731Z,4.70
2023-02-27T19:02:28.477Z,6.82
2023-02-27T19:04:55.125Z,8.88
2023-02-27T19:07:23.387Z,9.63
2023-02-27T19:09:50.049Z,6.38
2023-02-27T19:12:17.435Z,5.45
2023-02-27T19:14:44.111Z,8.93
2023-02-27T19:17:10.799Z,7.15
2023-02-27T19:19:40.681Z,6.72
2023-02-27T19:22:07.394Z,7.50
2023-02-27T19:24:34.011Z,7.22
2023-02-27T19:27:00.983Z,6.45
2023-02-27T19:29:27.615Z,8.23
2023-02-27T19:31:54.433Z,4.90
2023-02-27T19:34:21.195Z,4.53
2023-02-27T19:36:47.963Z,6.47
2023-02-27T19:39:14.684Z,7.85
2023-02-27T19:41:41.337Z,6.75
2023-02-27T19:44:08.478Z,8.68
2023-02-27T19:46:35.678Z,7.45
2023-02-27T19:49:05.518Z,7.35
2023-02-27T19:51:32.403Z,9.18
2023-02-27T19:53:59.099Z,9.38
2023-02-27T19:56:28.141Z,8.98
2023-02-27T19:58:55.079Z,6.78
2023-02-27T20:01:24.326Z,5.35
2023-02-27T20:03:51.104Z,13.90
2023-02-27T20:06:20.272Z,11.45
2023-02-27T20:08:47.011Z,8.02
2023-02-27T20:11:15.641Z,10.98
2023-02-27T20:13:42.229Z,12.93
2023-02-27T20:16:10.382Z,14.93
2023-02-27T20:18:39.812Z,10.43
2023-02-27T20:21:10.076Z,15.18
2023-02-27T20:23:39.809Z,11.07
2023-02-27T20:26:18.184Z,12.30
2023-02-27T20:28:45.885Z,13.02
2023-02-27T20:31:14.276Z,8.10
2023-02-27T20:33:41.818Z,10.73
2023-02-27T20:36:10.247Z,6.80
2023-02-27T20:38:39.177Z,9.88
2023-02-27T20:41:08.120Z,11.15
2023-02-27T20:43:35.232Z,10.13
2023-02-27T20:46:03.860Z,11.27
2023-02-27T20:48:30.529Z,11.20
2023-02-27T20:50:57.470Z,14.77
2023-02-27T20:53:26.242Z,11.25
2023-02-27T20:55:52.930Z,9.77
2023-02-27T20:58:19.528Z,10.02
2023-02-27T21:00:46.119Z,9.52
2023-02-27T21:03:12.773Z,12.15
2023-02-27T21:05:46.450Z,14.77
2023-02-27T21:08:13.090Z,12.40
2023-02-27T21:10:41.062Z,11.73
2023-02-27T21:13:07.765Z,12.13
2023-02-27T21:15:35.964Z,18.55
2023-02-27T21:18:02.722Z,15.43
2023-02-27T21:20:29.840Z,14.55
2023-02-27T21:22:56.544Z,11.77
2023-02-27T21:25:25.103Z,11.00
2023-02-27T21:27:51.763Z,12.50
2023-02-27T21:30:19.061Z,13.00
2023-02-27T21:32:45.762Z,11.75
2023-02-27T21:35:12.408Z,12.70
2023-02-27T21:37:46.697Z,14.27
2023-02-27T21:40:14.329Z,19.33
2023-02-27T21:42:42.209Z,11.20
2023-02-27T21:45:09.739Z,10.23
2023-02-27T21:47:36.350Z,10.07
2023-02-27T21:50:03.859Z,12.50
2023-02-27T21:52:31.616Z,11.27
2023-02-27T21:54:58.421Z,14.10
2023-02-27T21:57:25.092Z,12.18
2023-02-27T21:59:51.726Z,9.50
2023-02-27T22:02:18.391Z,12.05
2023-02-27T22:04:45.011Z,11.68
2023-02-27T22:07:11.675Z,11.63
2023-02-27T22:09:38.293Z,13.70
2023-02-27T22:12:05.298Z,11.43
2023-02-27T22:14:31.902Z,13.77
2023-02-27T22:16:58.548Z,14.75
2023-02-27T22:19:25.171Z,13.88
2023-02-27T22:21:51.864Z,14.70
2023-02-27T22:24:21.718Z,9.40
2023-02-27T22:26:49.641Z,11.63
2023-02-27T22:29:17.142Z,13.35
2023-02-27T22:31:43.811Z,9.70
2023-02-27T22:34:13.680Z,12.80
2023-02-27T22:36:41.767Z,14.10
2023-02-27T22:39:08.608Z,12.50
2023-02-27T22:41:38.350Z,10.00
2023-02-27T22:44:06.829Z,10.77
2023-02-27T22:46:36.431Z,16.98
2023-02-27T22:49:08.377Z,14.60
2023-02-27T22:51:35.499Z,14.07
2023-02-27T22:54:03.861Z,12.45
2023-02-27T22:56:31.391Z,14.43
2023-02-27T22:58:58.752Z,13.25
2023-02-27T23:01:28.887Z,16.38
2023-02-27T23:03:59.384Z,14.95
2023-02-27T23:06:29.401Z,13.52
2023-02-27T23:08:56.049Z,11.38
2023-02-27T23:11:23.502Z,14.13
2023-02-27T23:13:50.370Z,15.02
2023-02-27T23:16:17.642Z,15.35
2023-02-27T23:18:47.179Z,15.68
2023-02-27T23:21:16.927Z,18.85
2023-02-27T23:23:43.922Z,13.85
2023-02-27T23:26:10.964Z,14.30
2023-02-27T23:28:38.053Z,11.25
2023-02-27T23:31:06.468Z,21.55
2023-02-27T23:33:33.780Z,13.90
2023-02-27T23:36:04.471Z,17.40
2023-02-27T23:38:31.172Z,16.50
2023-02-27T23:40:57.894Z,16.55
2023-02-27T23:43:24.574Z,20.27
2023-02-27T23:45:51.220Z,20.08
2023-02-27T23:48:17.928Z,15.13
2023-02-27T23:50:45.050Z,17.02
2023-02-27T23:53:13.620Z,17.33
2023-02-27T23:55:41.282Z,15.75
2023-02-27T23:58:11.129Z,18.17
